Scf Navigator — WDD6460 — position and weather

sailwx.info

Track history (hours):
 
Tides and Currents Weather Stations Pressure Air Temp Water Temp Dewpoint Dewpoint Depression Visibility Wind Speed Wind Dir Waves Ship Positions

Scf Navigator

Owner: SCF WAXLER MARINE LLC, St Rose, LA. More information available from US FCC via Universal Licensing System and Coast Guard Vessel Documentation Center.

Last reported at 2018-Jun-17 22:18 UTC. Time now 2018-Jun-22 07:46 UTC.
Position N 32°46' W 091°09'.

Length 34 m; draft 2.7 m.

Type: Ship (hazmat cat A). MMSI: 367173230.

Date/timePositionNaut miles runAvg speedWind from/ knotsBaromVisibWave heightAir tempDewpointWater temp
2018-Jun-17 22:18N 32°46' W 091°09'6 3.1
2018-Jun-17 20:20N 32°41' W 091°04'2 5.2
2018-Jun-17 20:00N 32°40' W 091°06'2 3.5
2018-Jun-17 19:31N 32°40' W 091°08'2 3.3
2018-Jun-17 19:00N 32°38' W 091°09'2 3.0
2018-Jun-17 18:28N 32°37' W 091°09'0 0.0
2018-Jun-17 18:01N 32°37' W 091°09'0 0.2
2018-Jun-17 17:30N 32°37' W 091°09'2 4.0
2018-Jun-17 17:01N 32°35' W 091°08'2 4.6
2018-Jun-17 16:31N 32°33' W 091°06'3 5.3
2018-Jun-17 16:01N 32°31' W 091°07'3 5.2
2018-Jun-17 15:30N 32°28' W 091°06'3 5.3
2018-Jun-17 15:01N 32°27' W 091°04'3 5.3
2018-Jun-17 14:31N 32°26' W 091°01'2 4.4
2018-Jun-17 14:01N 32°23' W 090°60'2 4.6
2018-Jun-17 13:31N 32°21' W 090°60'3 5.5
2018-Jun-17 13:00N 32°21' W 090°56'2 3.9
2018-Jun-17 12:31N 32°20' W 090°54'0 1.0
2018-Jun-17 12:01N 32°20' W 090°54'2 4.5
2018-Jun-17 11:31N 32°18' W 090°56'2 4.9
2018-Jun-17 11:00N 32°16' W 090°58'2 4.1
2018-Jun-17 10:31N 32°14' W 090°59'3 5.1
2018-Jun-17 10:01N 32°12' W 090°59'2 3.8
2018-Jun-17 09:30N 32°10' W 090°60'2 4.1
2018-Jun-17 09:01N 32°08' W 091°00'2 3.9
2018-Jun-17 08:30N 32°07' W 091°03'2 4.1
2018-Jun-17 07:58N 32°08' W 091°05'2 3.8
2018-Jun-17 07:31N 32°07' W 091°06'3 0.9
2018-Jun-17 04:51N 32°05' W 091°04'2 4.3
2018-Jun-17 04:26N 32°04' W 091°03'2 5.2
2018-Jun-17 04:01N 32°01' W 091°04'6 4.6
2018-Jun-17 02:45N 31°59' W 091°10'1 4.6
2018-Jun-17 02:30N 31°58' W 091°11'11 4.2
2018-Jun-16 23:54N 31°51' W 091°21'  
2018-Jun-13 06:17N 31°08' W 091°38'2 8.8
2018-Jun-13 06:00N 31°10' W 091°36'41 6.6
2018-Jun-12 23:51N 31°48' W 091°21'3 7.7
2018-Jun-12 23:24N 31°51' W 091°19'3 8.2
2018-Jun-12 23:00N 31°51' W 091°15'8 8.2
2018-Jun-12 22:02N 31°58' W 091°11'0 7.8
2018-Jun-12 22:01N 31°58' W 091°11'4 7.9
2018-Jun-12 21:28N 31°59' W 091°06'4 8.7
2018-Jun-12 21:00N 32°03' W 091°03'4 8.1
2018-Jun-12 20:31N 32°06' W 091°06'3 5.1
2018-Jun-12 20:01N 32°07' W 091°03'4 7.1
2018-Jun-12 19:31N 32°10' W 091°00'4 8.9
2018-Jun-12 19:01N 32°14' W 090°59'4 8.4
2018-Jun-12 18:30N 32°17' W 090°56'4 7.8
2018-Jun-12 18:00N 32°21' W 090°54'2 4.0
2018-Jun-12 17:31N 32°22' W 090°53'1 2.4
2018-Jun-12 17:01N 32°23' W 090°54'0 0.8
2018-Jun-12 16:31N 32°23' W 090°54'0 0.0
2018-Jun-12 16:01N 32°23' W 090°54'1 1.7
2018-Jun-12 15:31N 32°23' W 090°53'0 0.4
2018-Jun-12 15:01N 32°23' W 090°53'0 0.1
2018-Jun-12 14:31N 32°23' W 090°53'0 0.0
2018-Jun-12 14:01N 32°23' W 090°53'1 1.4
2018-Jun-12 13:31N 32°23' W 090°54'0 0.7
2018-Jun-12 13:01N 32°23' W 090°54'0 0.0
2018-Jun-12 12:31N 32°23' W 090°54'0 0.0
2018-Jun-12 12:01N 32°23' W 090°54'0 0.0
2018-Jun-12 11:31N 32°23' W 090°54'0 0.0
2018-Jun-12 11:01N 32°23' W 090°54'0 0.0
2018-Jun-12 10:31N 32°23' W 090°54'0 0.0
2018-Jun-12 10:00N 32°23' W 090°54'0 0.0
2018-Jun-12 09:31N 32°23' W 090°54'0 0.0
2018-Jun-12 09:01N 32°23' W 090°54'0 0.0
2018-Jun-12 08:31N 32°23' W 090°54'0 0.0
2018-Jun-12 08:01N 32°23' W 090°54'0 0.0
2018-Jun-12 07:31N 32°23' W 090°54'0 0.0
2018-Jun-12 07:01N 32°23' W 090°54'0 0.0
2018-Jun-12 06:31N 32°23' W 090°54'0 0.0
2018-Jun-12 06:01N 32°23' W 090°54'0 0.0
2018-Jun-12 05:30N 32°23' W 090°54'0 0.0
2018-Jun-12 05:00N 32°23' W 090°54'0 0.0
2018-Jun-12 04:31N 32°23' W 090°54'0 0.0
2018-Jun-12 04:00N 32°23' W 090°54'0 0.0
2018-Jun-12 03:30N 32°23' W 090°54'0 0.0
2018-Jun-12 03:01N 32°23' W 090°54'0 0.0
2018-Jun-12 02:30N 32°23' W 090°54'0 0.0
2018-Jun-12 02:00N 32°23' W 090°54'0 0.0
2018-Jun-12 01:30N 32°23' W 090°54'0 0.0
2018-Jun-12 01:01N 32°23' W 090°54'0 0.0
2018-Jun-12 00:30N 32°23' W 090°54'0 0.0
2018-Jun-12 00:00N 32°23' W 090°54'0 0.0
2018-Jun-11 23:30N 32°23' W 090°54'0 0.0
2018-Jun-11 23:00N 32°23' W 090°54'0 0.0
2018-Jun-11 22:30N 32°23' W 090°54'0 0.0
2018-Jun-11 22:00N 32°23' W 090°54'0 0.0
2018-Jun-11 21:30N 32°23' W 090°54'0 0.0
2018-Jun-11 21:00N 32°23' W 090°54'0 0.0
2018-Jun-11 20:30N 32°23' W 090°54'0 0.0
2018-Jun-11 20:01N 32°23' W 090°54'0 0.0
2018-Jun-11 19:30N 32°23' W 090°54'0 0.0
2018-Jun-11 19:00N 32°23' W 090°54'0 0.0
2018-Jun-11 18:30N 32°23' W 090°54'0 0.0
2018-Jun-11 18:00N 32°23' W 090°54'0 0.0
2018-Jun-11 17:30N 32°23' W 090°54'0 0.0
2018-Jun-11 17:00N 32°23' W 090°54'0 0.0
2018-Jun-11 16:30N 32°23' W 090°54'0 0.0
2018-Jun-11 16:00N 32°23' W 090°54'0 0.6
2018-Jun-11 15:30N 32°23' W 090°54'0 0.1
2018-Jun-11 15:00N 32°23' W 090°54'0 0.0
2018-Jun-11 14:30N 32°23' W 090°54'0 0.0
2018-Jun-11 14:00N 32°23' W 090°54'0 0.0
2018-Jun-11 13:30N 32°23' W 090°54'0 0.0
2018-Jun-11 13:00N 32°23' W 090°54'0 0.0
2018-Jun-11 12:30N 32°23' W 090°54'0 0.0
2018-Jun-11 12:00N 32°23' W 090°54'0 0.0
2018-Jun-11 11:30N 32°23' W 090°54'0 0.0
2018-Jun-11 11:00N 32°23' W 090°54'0 0.0
2018-Jun-11 10:30N 32°23' W 090°54'0 0.0
2018-Jun-11 10:00N 32°23' W 090°54'0 0.0
2018-Jun-11 09:30N 32°23' W 090°54'0 0.2
2018-Jun-11 09:00N 32°23' W 090°54'1 1.4
2018-Jun-11 08:30N 32°23' W 090°53'2 3.6
2018-Jun-11 08:00N 32°21' W 090°53'1 3.0
2018-Jun-11 07:30N 32°21' W 090°55'1 1.6
2018-Jun-11 07:00N 32°21' W 090°56'0 0.0
2018-Jun-11 06:22N 32°21' W 090°56'0 0.0
2018-Jun-11 06:00N 32°21' W 090°56'0 0.0
2018-Jun-11 05:29N 32°21' W 090°56'0 0.0
2018-Jun-11 05:00N 32°21' W 090°56'0 0.0
2018-Jun-11 04:30N 32°21' W 090°56'0 0.0
2018-Jun-11 04:00N 32°21' W 090°56'0 0.0
2018-Jun-11 03:30N 32°21' W 090°56'0 0.0
2018-Jun-11 03:00N 32°21' W 090°56'0 0.0
2018-Jun-11 02:27N 32°21' W 090°56'0 0.0
2018-Jun-11 01:59N 32°21' W 090°56'0 0.0
2018-Jun-11 01:27N 32°21' W 090°56'0 0.0
2018-Jun-11 01:00N 32°21' W 090°56'0 0.0
2018-Jun-11 00:30N 32°21' W 090°56'2 3.1
2018-Jun-11 00:00N 32°21' W 090°57'3 6.9
2018-Jun-10 23:30N 32°24' W 090°59'4 9.0
2018-Jun-10 23:00N 32°26' W 091°04'4 8.1
2018-Jun-10 22:30N 32°29' W 091°07'4 7.7
2018-Jun-10 22:00N 32°33' W 091°06'4 7.6
2018-Jun-10 21:30N 32°36' W 091°09'4 7.2
2018-Jun-10 20:59N 32°40' W 091°08'7 0.2
2018-Jun-09 02:45N 32°47' W 091°09'1 4.2
2018-Jun-09 02:30N 32°46' W 091°09'4 3.6
2018-Jun-09 01:21N 32°44' W 091°05'2 4.2
2018-Jun-09 00:59N 32°43' W 091°03'4 4.0
2018-Jun-08 23:56N 32°40' W 091°07'3 4.0
2018-Jun-08 23:18N 32°38' W 091°09'1 5.0
2018-Jun-08 23:00N 32°37' W 091°09'2 4.4
2018-Jun-08 22:31N 32°35' W 091°07'2 4.2
2018-Jun-08 22:00N 32°33' W 091°06'2 4.4
2018-Jun-08 21:30N 32°31' W 091°06'2 4.3
2018-Jun-08 21:00N 32°29' W 091°07'2 4.2
2018-Jun-08 20:30N 32°27' W 091°05'2 4.6
2018-Jun-08 20:00N 32°26' W 091°03'2 4.7
2018-Jun-08 19:30N 32°25' W 091°00'2 4.2
2018-Jun-08 19:00N 32°23' W 090°60'2 4.3
2018-Jun-08 18:30N 32°21' W 090°60'2 4.8
2018-Jun-08 18:00N 32°21' W 090°57'2 4.4
2018-Jun-08 17:30N 32°20' W 090°55'2 3.6
2018-Jun-08 17:00N 32°18' W 090°55'1 1.6
2018-Jun-08 16:30N 32°18' W 090°56'1 2.6
2018-Jun-08 16:00N 32°17' W 090°57'2 3.8
2018-Jun-08 15:30N 32°15' W 090°58'2 4.4
2018-Jun-08 15:00N 32°13' W 090°59'2 4.1
2018-Jun-08 14:30N 32°11' W 090°60'2 3.6
2018-Jun-08 14:00N 32°10' W 090°60'2 3.4
2018-Jun-08 13:30N 32°08' W 091°01'2 3.1
2018-Jun-08 12:59N 32°07' W 091°02'2 3.2
2018-Jun-08 12:30N 32°08' W 091°04'2 3.7
2018-Jun-08 12:00N 32°08' W 091°06'2 3.3
2018-Jun-08 11:30N 32°06' W 091°06'2 3.3
2018-Jun-08 10:55N 32°05' W 091°04'2 2.9
2018-Jun-08 10:23N 32°04' W 091°03'1 3.5
2018-Jun-08 10:00N 32°02' W 091°04'2 4.1
2018-Jun-08 09:30N 32°00' W 091°05'5 3.5
2018-Jun-08 08:09N 31°59' W 091°10'1 3.6
2018-Jun-08 08:00N 31°59' W 091°11'2 3.1
2018-Jun-08 07:30N 31°57' W 091°11'2 3.4
2018-Jun-08 06:58N 31°55' W 091°12'3 3.6
2018-Jun-08 06:14N 31°53' W 091°13'6 3.5
2018-Jun-08 04:29N 31°51' W 091°20'1 3.0
2018-Jun-08 04:00N 31°50' W 091°21'1 2.8
2018-Jun-08 03:30N 31°49' W 091°21'  
Track history (hours):
 
Tides and Currents Weather Stations Pressure Air Temp Water Temp Dewpoint Dewpoint Depression Visibility Wind Speed Wind Dir Waves Ship Positions

Scf Navigator

Owner: SCF WAXLER MARINE LLC, St Rose, LA. More information available from US FCC via Universal Licensing System and Coast Guard Vessel Documentation Center.

Last reported at 2018-Jun-17 22:18 UTC. Time now 2018-Jun-22 07:46 UTC.
Position N 32°46' W 091°09'.

Length 34 m; draft 2.7 m.

Type: Ship (hazmat cat A). MMSI: 367173230.

Date/timePositionNaut miles runAvg speedWind from/ knotsBaromVisibWave heightAir tempDewpointWater temp
2018-Jun-17 22:18N 32°46' W 091°09'6 3.1
2018-Jun-17 20:20N 32°41' W 091°04'2 5.2
2018-Jun-17 20:00N 32°40' W 091°06'2 3.5
2018-Jun-17 19:31N 32°40' W 091°08'2 3.3
2018-Jun-17 19:00N 32°38' W 091°09'2 3.0
2018-Jun-17 18:28N 32°37' W 091°09'0 0.0
2018-Jun-17 18:01N 32°37' W 091°09'0 0.2
2018-Jun-17 17:30N 32°37' W 091°09'2 4.0
2018-Jun-17 17:01N 32°35' W 091°08'2 4.6
2018-Jun-17 16:31N 32°33' W 091°06'3 5.3
2018-Jun-17 16:01N 32°31' W 091°07'3 5.2
2018-Jun-17 15:30N 32°28' W 091°06'3 5.3
2018-Jun-17 15:01N 32°27' W 091°04'3 5.3
2018-Jun-17 14:31N 32°26' W 091°01'2 4.4
2018-Jun-17 14:01N 32°23' W 090°60'2 4.6
2018-Jun-17 13:31N 32°21' W 090°60'3 5.5
2018-Jun-17 13:00N 32°21' W 090°56'2 3.9
2018-Jun-17 12:31N 32°20' W 090°54'0 1.0
2018-Jun-17 12:01N 32°20' W 090°54'2 4.5
2018-Jun-17 11:31N 32°18' W 090°56'2 4.9
2018-Jun-17 11:00N 32°16' W 090°58'2 4.1
2018-Jun-17 10:31N 32°14' W 090°59'3 5.1
2018-Jun-17 10:01N 32°12' W 090°59'2 3.8
2018-Jun-17 09:30N 32°10' W 090°60'2 4.1
2018-Jun-17 09:01N 32°08' W 091°00'2 3.9
2018-Jun-17 08:30N 32°07' W 091°03'2 4.1
2018-Jun-17 07:58N 32°08' W 091°05'2 3.8
2018-Jun-17 07:31N 32°07' W 091°06'3 0.9
2018-Jun-17 04:51N 32°05' W 091°04'2 4.3
2018-Jun-17 04:26N 32°04' W 091°03'2 5.2
2018-Jun-17 04:01N 32°01' W 091°04'6 4.6
2018-Jun-17 02:45N 31°59' W 091°10'1 4.6
2018-Jun-17 02:30N 31°58' W 091°11'11 4.2
2018-Jun-16 23:54N 31°51' W 091°21'  
2018-Jun-13 06:17N 31°08' W 091°38'2 8.8
2018-Jun-13 06:00N 31°10' W 091°36'41 6.6
2018-Jun-12 23:51N 31°48' W 091°21'3 7.7
2018-Jun-12 23:24N 31°51' W 091°19'3 8.2
2018-Jun-12 23:00N 31°51' W 091°15'8 8.2
2018-Jun-12 22:02N 31°58' W 091°11'0 7.8
2018-Jun-12 22:01N 31°58' W 091°11'4 7.9
2018-Jun-12 21:28N 31°59' W 091°06'4 8.7
2018-Jun-12 21:00N 32°03' W 091°03'4 8.1
2018-Jun-12 20:31N 32°06' W 091°06'3 5.1
2018-Jun-12 20:01N 32°07' W 091°03'4 7.1
2018-Jun-12 19:31N 32°10' W 091°00'4 8.9
2018-Jun-12 19:01N 32°14' W 090°59'4 8.4
2018-Jun-12 18:30N 32°17' W 090°56'4 7.8
2018-Jun-12 18:00N 32°21' W 090°54'2 4.0
2018-Jun-12 17:31N 32°22' W 090°53'1 2.4
2018-Jun-12 17:01N 32°23' W 090°54'0 0.8
2018-Jun-12 16:31N 32°23' W 090°54'0 0.0
2018-Jun-12 16:01N 32°23' W 090°54'1 1.7
2018-Jun-12 15:31N 32°23' W 090°53'0 0.4
2018-Jun-12 15:01N 32°23' W 090°53'0 0.1
2018-Jun-12 14:31N 32°23' W 090°53'0 0.0
2018-Jun-12 14:01N 32°23' W 090°53'1 1.4
2018-Jun-12 13:31N 32°23' W 090°54'0 0.7
2018-Jun-12 13:01N 32°23' W 090°54'0 0.0
2018-Jun-12 12:31N 32°23' W 090°54'0 0.0
2018-Jun-12 12:01N 32°23' W 090°54'0 0.0
2018-Jun-12 11:31N 32°23' W 090°54'0 0.0
2018-Jun-12 11:01N 32°23' W 090°54'0 0.0
2018-Jun-12 10:31N 32°23' W 090°54'0 0.0
2018-Jun-12 10:00N 32°23' W 090°54'0 0.0
2018-Jun-12 09:31N 32°23' W 090°54'0 0.0
2018-Jun-12 09:01N 32°23' W 090°54'0 0.0
2018-Jun-12 08:31N 32°23' W 090°54'0 0.0
2018-Jun-12 08:01N 32°23' W 090°54'0 0.0
2018-Jun-12 07:31N 32°23' W 090°54'0 0.0
2018-Jun-12 07:01N 32°23' W 090°54'0 0.0
2018-Jun-12 06:31N 32°23' W 090°54'0 0.0
2018-Jun-12 06:01N 32°23' W 090°54'0 0.0
2018-Jun-12 05:30N 32°23' W 090°54'0 0.0
2018-Jun-12 05:00N 32°23' W 090°54'0 0.0
2018-Jun-12 04:31N 32°23' W 090°54'0 0.0
2018-Jun-12 04:00N 32°23' W 090°54'0 0.0
2018-Jun-12 03:30N 32°23' W 090°54'0 0.0
2018-Jun-12 03:01N 32°23' W 090°54'0 0.0
2018-Jun-12 02:30N 32°23' W 090°54'0 0.0
2018-Jun-12 02:00N 32°23' W 090°54'0 0.0
2018-Jun-12 01:30N 32°23' W 090°54'0 0.0
2018-Jun-12 01:01N 32°23' W 090°54'0 0.0
2018-Jun-12 00:30N 32°23' W 090°54'0 0.0
2018-Jun-12 00:00N 32°23' W 090°54'0 0.0
2018-Jun-11 23:30N 32°23' W 090°54'0 0.0
2018-Jun-11 23:00N 32°23' W 090°54'0 0.0
2018-Jun-11 22:30N 32°23' W 090°54'0 0.0
2018-Jun-11 22:00N 32°23' W 090°54'0 0.0
2018-Jun-11 21:30N 32°23' W 090°54'0 0.0
2018-Jun-11 21:00N 32°23' W 090°54'0 0.0
2018-Jun-11 20:30N 32°23' W 090°54'0 0.0
2018-Jun-11 20:01N 32°23' W 090°54'0 0.0
2018-Jun-11 19:30N 32°23' W 090°54'0 0.0
2018-Jun-11 19:00N 32°23' W 090°54'0 0.0
2018-Jun-11 18:30N 32°23' W 090°54'0 0.0
2018-Jun-11 18:00N 32°23' W 090°54'0 0.0
2018-Jun-11 17:30N 32°23' W 090°54'0 0.0
2018-Jun-11 17:00N 32°23' W 090°54'0 0.0
2018-Jun-11 16:30N 32°23' W 090°54'0 0.0
2018-Jun-11 16:00N 32°23' W 090°54'0 0.6
2018-Jun-11 15:30N 32°23' W 090°54'0 0.1
2018-Jun-11 15:00N 32°23' W 090°54'0 0.0
2018-Jun-11 14:30N 32°23' W 090°54'0 0.0
2018-Jun-11 14:00N 32°23' W 090°54'0 0.0
2018-Jun-11 13:30N 32°23' W 090°54'0 0.0
2018-Jun-11 13:00N 32°23' W 090°54'0 0.0
2018-Jun-11 12:30N 32°23' W 090°54'0 0.0
2018-Jun-11 12:00N 32°23' W 090°54'0 0.0
2018-Jun-11 11:30N 32°23' W 090°54'0 0.0
2018-Jun-11 11:00N 32°23' W 090°54'0 0.0
2018-Jun-11 10:30N 32°23' W 090°54'0 0.0
2018-Jun-11 10:00N 32°23' W 090°54'0 0.0
2018-Jun-11 09:30N 32°23' W 090°54'0 0.2
2018-Jun-11 09:00N 32°23' W 090°54'1 1.4
2018-Jun-11 08:30N 32°23' W 090°53'2 3.6
2018-Jun-11 08:00N 32°21' W 090°53'1 3.0
2018-Jun-11 07:30N 32°21' W 090°55'1 1.6
2018-Jun-11 07:00N 32°21' W 090°56'0 0.0
2018-Jun-11 06:22N 32°21' W 090°56'0 0.0
2018-Jun-11 06:00N 32°21' W 090°56'0 0.0
2018-Jun-11 05:29N 32°21' W 090°56'0 0.0
2018-Jun-11 05:00N 32°21' W 090°56'0 0.0
2018-Jun-11 04:30N 32°21' W 090°56'0 0.0
2018-Jun-11 04:00N 32°21' W 090°56'0 0.0
2018-Jun-11 03:30N 32°21' W 090°56'0 0.0
2018-Jun-11 03:00N 32°21' W 090°56'0 0.0
2018-Jun-11 02:27N 32°21' W 090°56'0 0.0
2018-Jun-11 01:59N 32°21' W 090°56'0 0.0
2018-Jun-11 01:27N 32°21' W 090°56'0 0.0
2018-Jun-11 01:00N 32°21' W 090°56'0 0.0
2018-Jun-11 00:30N 32°21' W 090°56'2 3.1
2018-Jun-11 00:00N 32°21' W 090°57'3 6.9
2018-Jun-10 23:30N 32°24' W 090°59'4 9.0
2018-Jun-10 23:00N 32°26' W 091°04'4 8.1
2018-Jun-10 22:30N 32°29' W 091°07'4 7.7
2018-Jun-10 22:00N 32°33' W 091°06'4 7.6
2018-Jun-10 21:30N 32°36' W 091°09'4 7.2
2018-Jun-10 20:59N 32°40' W 091°08'7 0.2
2018-Jun-09 02:45N 32°47' W 091°09'1 4.2
2018-Jun-09 02:30N 32°46' W 091°09'4 3.6
2018-Jun-09 01:21N 32°44' W 091°05'2 4.2
2018-Jun-09 00:59N 32°43' W 091°03'4 4.0
2018-Jun-08 23:56N 32°40' W 091°07'3 4.0
2018-Jun-08 23:18N 32°38' W 091°09'1 5.0
2018-Jun-08 23:00N 32°37' W 091°09'2 4.4
2018-Jun-08 22:31N 32°35' W 091°07'2 4.2
2018-Jun-08 22:00N 32°33' W 091°06'2 4.4
2018-Jun-08 21:30N 32°31' W 091°06'2 4.3
2018-Jun-08 21:00N 32°29' W 091°07'2 4.2
2018-Jun-08 20:30N 32°27' W 091°05'2 4.6
2018-Jun-08 20:00N 32°26' W 091°03'2 4.7
2018-Jun-08 19:30N 32°25' W 091°00'2 4.2
2018-Jun-08 19:00N 32°23' W 090°60'2 4.3
2018-Jun-08 18:30N 32°21' W 090°60'2 4.8
2018-Jun-08 18:00N 32°21' W 090°57'2 4.4
2018-Jun-08 17:30N 32°20' W 090°55'2 3.6
2018-Jun-08 17:00N 32°18' W 090°55'1 1.6
2018-Jun-08 16:30N 32°18' W 090°56'1 2.6
2018-Jun-08 16:00N 32°17' W 090°57'2 3.8
2018-Jun-08 15:30N 32°15' W 090°58'2 4.4
2018-Jun-08 15:00N 32°13' W 090°59'2 4.1
2018-Jun-08 14:30N 32°11' W 090°60'2 3.6
2018-Jun-08 14:00N 32°10' W 090°60'2 3.4
2018-Jun-08 13:30N 32°08' W 091°01'2 3.1
2018-Jun-08 12:59N 32°07' W 091°02'2 3.2
2018-Jun-08 12:30N 32°08' W 091°04'2 3.7
2018-Jun-08 12:00N 32°08' W 091°06'2 3.3
2018-Jun-08 11:30N 32°06' W 091°06'2 3.3
2018-Jun-08 10:55N 32°05' W 091°04'2 2.9
2018-Jun-08 10:23N 32°04' W 091°03'1 3.5
2018-Jun-08 10:00N 32°02' W 091°04'2 4.1
2018-Jun-08 09:30N 32°00' W 091°05'5 3.5
2018-Jun-08 08:09N 31°59' W 091°10'1 3.6
2018-Jun-08 08:00N 31°59' W 091°11'2 3.1
2018-Jun-08 07:30N 31°57' W 091°11'2 3.4
2018-Jun-08 06:58N 31°55' W 091°12'3 3.6
2018-Jun-08 06:14N 31°53' W 091°13'6 3.5
2018-Jun-08 04:29N 31°51' W 091°20'1 3.0
2018-Jun-08 04:00N 31°50' W 091°21'1 2.8
2018-Jun-08 03:30N 31°49' W 091°21'  

Dump ship's entire track history